Time;durP1;ratioP1;P1;durP2;ratioP2;P2;SDS_P1;SDS_P2;PMS_P1;PMS_P2;Temp;Humidity;BMP_temperature;BMP_pressure;BME280_temperature;BME280_humidity;BME280_pressure;Samples;Min_cycle;Max_cycle;Signal;HPM_P1;HPM_P2
2022/04/27 00:00:15;;;;;;;10.93;7.18;;;;;;;10.29;53.82;102277.97;5088106;28;20056;-60
2022/04/27 00:02:41;;;;;;;9.30;7.57;;;;;;;10.21;54.22;102279.00;5103566;28;82348;-60
2022/04/27 00:05:09;;;;;;;12.45;7.53;;;;;;;10.16;54.33;102277.97;5089988;28;20116;-60
2022/04/27 00:07:34;;;;;;;12.77;7.40;;;;;;;10.12;54.77;102274.75;5089738;28;20036;-60
2022/04/27 00:10:00;;;;;;;11.18;6.93;;;;;;;10.08;54.74;102273.47;5091683;28;20089;-60
2022/04/27 00:12:34;;;;;;;10.18;7.50;;;;;;;10.04;55.01;102269.44;5090729;28;20028;-60
2022/04/27 00:14:59;;;;;;;11.38;7.60;;;;;;;9.95;55.24;102270.72;5088755;28;20464;-60
2022/04/27 00:17:25;;;;;;;10.90;7.28;;;;;;;9.90;55.16;102273.28;5090719;28;20035;-61
2022/04/27 00:19:50;;;;;;;11.52;7.15;;;;;;;9.91;54.86;102273.09;5089944;28;20071;-60
2022/04/27 00:22:15;;;;;;;10.95;7.20;;;;;;;9.92;55.48;102266.47;5089897;28;21777;-60
2022/04/27 00:24:40;;;;;;;10.23;7.97;;;;;;;9.84;55.49;102269.44;5082762;28;20063;-60
2022/04/27 00:27:06;;;;;;;12.20;7.63;;;;;;;9.77;55.65;102260.28;5089012;28;20070;-60
2022/04/27 00:29:32;;;;;;;11.13;7.50;;;;;;;9.74;55.26;102271.78;5089849;28;20043;-60
2022/04/27 00:31:57;;;;;;;10.77;7.80;;;;;;;9.70;55.02;102270.50;5087747;28;20031;-60
2022/04/27 00:34:22;;;;;;;11.50;7.85;;;;;;;9.68;55.12;102269.88;5089010;28;20044;-60
2022/04/27 00:36:51;;;;;;;13.07;8.00;;;;;;;9.66;55.40;102274.78;5089863;28;20077;-60
2022/04/27 00:39:17;;;;;;;12.10;8.45;;;;;;;9.59;56.16;102272.88;5074641;28;20486;-60
2022/04/27 00:42:02;;;;;;;14.38;8.73;;;;;;;9.58;55.62;102271.13;5089790;28;20035;-60
2022/04/27 00:44:34;;;;;;;12.68;8.68;;;;;;;9.56;55.86;102273.28;5073078;28;20476;-60
2022/04/27 00:47:01;;;;;;;14.43;9.68;;;;;;;9.55;55.30;102279.91;5087388;28;20028;-60
2022/04/27 00:49:27;;;;;;;14.25;9.15;;;;;;;9.57;56.09;102286.06;5069675;28;20024;-60
2022/04/27 00:51:53;;;;;;;10.70;8.63;;;;;;;9.50;55.63;102287.97;5084255;28;20039;-60
2022/04/27 00:54:22;;;;;;;9.98;8.32;;;;;;;9.50;56.38;102285.19;5089605;28;20023;-60
2022/04/27 00:56:48;;;;;;;10.70;8.88;;;;;;;9.44;56.52;102286.06;5088279;28;20032;-60
2022/04/27 00:59:13;;;;;;;12.25;8.48;;;;;;;9.42;56.14;102285.41;5091187;28;20421;-60
2022/04/27 01:01:39;;;;;;;11.00;8.48;;;;;;;9.43;56.23;102289.03;5091605;28;20096;-59
2022/04/27 01:04:05;;;;;;;10.15;7.97;;;;;;;9.47;56.21;102288.41;5091586;28;20048;-60
2022/04/27 01:06:30;;;;;;;10.90;8.05;;;;;;;9.38;56.07;102284.13;5075981;28;20379;-59
2022/04/27 01:08:56;;;;;;;11.10;8.55;;;;;;;9.40;56.01;102290.31;5093450;28;20028;-59
2022/04/27 01:11:21;;;;;;;12.65;8.25;;;;;;;9.35;56.14;102292.84;5083378;28;20032;-60
2022/04/27 01:13:47;;;;;;;11.45;8.18;;;;;;;9.32;56.47;102299.69;5091903;28;20432;-60
2022/04/27 01:16:15;;;;;;;8.82;7.72;;;;;;;9.36;56.03;102291.81;5092998;28;20019;-60
2022/04/27 01:18:40;;;;;;;11.85;8.50;;;;;;;9.28;56.31;102298.38;5091429;28;20036;-60
2022/04/27 01:21:06;;;;;;;9.90;8.23;;;;;;;9.28;56.46;102292.84;5093895;28;20111;-59
2022/04/27 01:23:31;;;;;;;12.80;8.70;;;;;;;9.24;55.87;102294.34;5091984;28;20028;-60
2022/04/27 01:26:05;;;;;;;11.98;8.27;;;;;;;9.22;56.44;102298.38;5093514;28;20082;-60
2022/04/27 01:28:31;;;;;;;15.10;8.88;;;;;;;9.23;56.84;102297.28;5092515;28;20028;-59
2022/04/27 01:30:57;;;;;;;12.07;8.40;;;;;;;9.17;56.46;102300.91;5092816;28;20027;-60
2022/04/27 01:33:22;;;;;;;9.70;8.10;;;;;;;9.11;56.53;102308.13;5092451;28;20599;-59
2022/04/27 01:35:48;;;;;;;11.23;7.80;;;;;;;9.14;56.64;102307.72;5093629;28;20037;-60
2022/04/27 01:38:16;;;;;;;10.25;8.45;;;;;;;9.08;56.42;102308.56;5091564;28;20021;-60
2022/04/27 01:40:42;;;;;;;12.52;8.70;;;;;;;9.02;56.94;102299.16;5073097;28;20055;-60
2022/04/27 01:43:07;;;;;;;12.85;8.65;;;;;;;8.98;57.17;102308.09;5079608;28;20032;-60
2022/04/27 01:45:32;;;;;;;10.10;8.38;;;;;;;9.03;56.88;102306.38;5089368;28;20027;-60
2022/04/27 01:47:58;;;;;;;14.75;8.73;;;;;;;8.97;56.91;102310.00;5091799;28;20078;-60
2022/04/27 01:50:23;;;;;;;10.52;9.05;;;;;;;8.94;56.99;102310.41;5092157;28;20024;-60
2022/04/27 01:55:32;;;;;;;9.90;8.60;;;;;;;8.94;56.73;102306.78;5091839;28;20540;-60
2022/04/27 01:57:58;;;;;;;12.57;8.55;;;;;;;8.90;56.83;102316.56;5093226;28;20032;-60
2022/04/27 02:00:24;;;;;;;12.80;9.60;;;;;;;8.84;56.90;102313.59;5091177;28;20103;-60
2022/04/27 02:02:49;;;;;;;12.27;9.13;;;;;;;8.79;56.75;102313.31;5092842;28;20411;-60
2022/04/27 02:05:14;;;;;;;10.40;8.70;;;;;;;8.78;56.71;102313.53;5079805;28;20479;-60
2022/04/27 02:07:40;;;;;;;11.70;9.50;;;;;;;8.76;56.59;102313.75;5072660;28;20036;-59
2022/04/27 02:10:06;;;;;;;10.25;9.25;;;;;;;8.79;56.49;102307.78;5085212;28;20043;-59
2022/04/27 02:12:32;;;;;;;11.25;8.43;;;;;;;8.69;56.51;102312.00;5091908;28;20028;-60
2022/04/27 02:14:57;;;;;;;10.90;9.27;;;;;;;8.66;57.15;102315.19;5090455;28;20028;-60
2022/04/27 02:17:22;;;;;;;9.93;8.80;;;;;;;8.68;57.27;102313.06;5092774;28;20028;-60
2022/04/27 02:19:48;;;;;;;12.88;9.20;;;;;;;8.69;57.37;102312.88;5089068;28;20044;-60
2022/04/27 02:22:13;;;;;;;13.23;9.60;;;;;;;8.64;57.44;102314.53;5092713;28;20450;-60
2022/04/27 02:24:38;;;;;;;11.30;9.45;;;;;;;8.69;57.68;102320.31;5088377;28;20039;-59
2022/04/27 02:27:04;;;;;;;13.25;9.95;;;;;;;8.67;57.55;102319.66;5076138;28;20032;-59
2022/04/27 02:29:29;;;;;;;12.50;10.15;;;;;;;8.64;58.00;102317.28;5088882;28;20035;-59
2022/04/27 02:31:54;;;;;;;10.82;9.65;;;;;;;8.65;58.04;102325.41;5091505;28;20152;-60
2022/04/27 02:34:19;;;;;;;14.38;9.82;;;;;;;8.64;58.36;102322.81;5090609;28;20032;-59
2022/04/27 02:36:45;;;;;;;14.88;10.27;;;;;;;8.59;57.98;102321.53;5090103;28;20039;-59
2022/04/27 02:39:10;;;;;;;13.07;10.25;;;;;;;8.60;57.71;102326.00;5091266;28;20041;-59
2022/04/27 02:41:35;;;;;;;12.43;9.38;;;;;;;8.57;57.89;102334.72;5090052;28;20586;-59
2022/04/27 02:44:01;;;;;;;11.57;9.65;;;;;;;8.52;57.91;102347.44;5091111;28;20028;-59
2022/04/27 02:46:26;;;;;;;11.07;9.55;;;;;;;8.51;58.20;102341.06;5087279;28;20032;-59
2022/04/27 02:51:53;;;;;;;10.25;9.25;;;;;;;8.48;58.27;102338.69;5090528;28;20097;-60
2022/04/27 02:54:20;;;;;;;13.43;9.80;;;;;;;8.49;57.94;102345.06;5090896;28;20064;-60
2022/04/27 02:56:48;;;;;;;11.00;9.85;;;;;;;8.42;58.12;102344.22;5090636;28;20054;-60
2022/04/27 02:59:14;;;;;;;12.55;9.77;;;;;;;8.36;57.59;102343.91;5090756;28;20493;-59
2022/04/27 03:01:40;;;;;;;14.45;10.45;;;;;;;8.33;58.57;102349.88;5089645;28;20059;-60
2022/04/27 03:04:10;;;;;;;13.70;10.98;;;;;;;8.30;58.20;102349.41;5090351;28;20024;-59
2022/04/27 03:06:35;;;;;;;13.27;10.63;;;;;;;8.32;58.70;102350.03;5071205;28;20028;-59
2022/04/27 03:09:01;;;;;;;13.98;10.45;;;;;;;8.30;58.63;102347.50;5073551;28;20077;-60
2022/04/27 03:11:26;;;;;;;13.10;10.48;;;;;;;8.30;58.04;102352.19;5091019;28;20361;-60
2022/04/27 03:13:54;;;;;;;14.25;10.32;;;;;;;8.29;57.92;102355.97;5090643;28;20089;-60
2022/04/27 03:16:20;;;;;;;12.07;10.00;;;;;;;8.22;58.75;102344.88;5070625;28;20036;-60
2022/04/27 03:18:46;;;;;;;11.80;10.57;;;;;;;8.30;57.86;102349.41;5085884;28;20093;-60
2022/04/27 03:21:12;;;;;;;12.50;10.10;;;;;;;8.23;58.63;102342.97;5091250;28;20026;-60
2022/04/27 03:23:37;;;;;;;13.50;10.75;;;;;;;8.20;57.77;102352.50;5086297;28;20054;-60
2022/04/27 03:26:03;;;;;;;13.27;10.93;;;;;;;8.11;57.95;102354.56;5071508;28;20622;-60
2022/04/27 03:28:28;;;;;;;13.55;10.35;;;;;;;8.08;57.89;102363.25;5090085;28;20039;-60
2022/04/27 03:30:54;;;;;;;11.90;10.43;;;;;;;8.09;58.49;102358.59;5090872;28;20032;-60
2022/04/27 03:33:20;;;;;;;11.52;10.40;;;;;;;8.12;57.29;102353.50;5089332;28;20027;-60
2022/04/27 03:35:46;;;;;;;12.80;10.50;;;;;;;8.07;57.99;102356.03;5091277;28;20028;-60
2022/04/27 03:38:11;;;;;;;12.82;11.00;;;;;;;8.03;58.21;102354.72;5089370;28;20031;-60
2022/04/27 03:40:37;;;;;;;12.57;11.20;;;;;;;8.08;58.29;102354.97;5090382;28;20044;-60
2022/04/27 03:43:03;;;;;;;13.65;10.32;;;;;;;8.02;58.06;102350.25;5090545;28;20032;-59
2022/04/27 03:45:28;;;;;;;14.82;10.95;;;;;;;7.97;58.25;102355.50;5089596;28;20052;-59
2022/04/27 03:47:53;;;;;;;13.45;10.73;;;;;;;7.95;58.31;102354.00;5091466;28;20468;-59
2022/04/27 03:50:19;;;;;;;14.07;11.30;;;;;;;7.91;58.07;102361.84;5088704;28;20490;-60
2022/04/27 03:52:44;;;;;;;13.77;10.88;;;;;;;7.91;58.59;102359.09;5070540;28;20039;-60
2022/04/27 03:55:11;;;;;;;12.25;10.68;;;;;;;7.88;57.76;102367.78;5084900;28;20106;-59
2022/04/27 03:57:37;;;;;;;16.15;11.13;;;;;;;7.85;58.87;102371.78;5090800;28;20704;-59
2022/04/27 04:00:04;;;;;;;12.93;10.57;;;;;;;7.79;58.37;102369.81;5085861;28;20103;-59
2022/04/27 04:02:29;;;;;;;14.82;11.48;;;;;;;7.80;58.22;102370.66;5091038;28;20048;-59
2022/04/27 04:04:55;;;;;;;13.88;11.10;;;;;;;7.76;58.15;102375.72;5089224;28;20120;-59
2022/04/27 04:07:20;;;;;;;14.30;11.25;;;;;;;7.73;58.34;102375.28;5091311;28;20035;-60
2022/04/27 04:09:45;;;;;;;12.63;11.10;;;;;;;7.69;58.12;102380.34;5083584;28;20032;-60
2022/04/27 04:12:10;;;;;;;16.38;10.98;;;;;;;7.65;58.48;102379.00;5090112;28;20024;-60
2022/04/27 04:14:36;;;;;;;13.48;11.65;;;;;;;7.63;58.46;102383.91;5087368;28;20134;-60
2022/04/27 04:17:02;;;;;;;15.35;11.50;;;;;;;7.55;58.85;102378.50;5090745;28;20490;-60
2022/04/27 04:19:33;;;;;;;12.68;11.38;;;;;;;7.57;58.90;102388.28;5078249;28;20067;-60
2022/04/27 04:21:59;;;;;;;13.10;11.25;;;;;;;7.62;57.78;102390.44;5070850;28;20116;-60
2022/04/27 04:24:25;;;;;;;16.08;11.48;;;;;;;7.55;58.68;102387.63;5080978;28;20654;-60
2022/04/27 04:29:34;;;;;;;12.65;11.30;;;;;;;7.48;58.83;102385.84;5089881;28;20043;-60
2022/04/27 04:32:00;;;;;;;13.25;11.35;;;;;;;7.47;59.02;102389.69;5089049;28;20391;-60
2022/04/27 04:34:25;;;;;;;14.70;10.85;;;;;;;7.48;58.57;102399.66;5093505;28;20028;-60
2022/04/27 04:36:53;;;;;;;13.57;10.48;;;;;;;7.50;58.61;102401.16;5092462;28;20508;-60
2022/04/27 04:39:19;;;;;;;13.30;11.85;;;;;;;7.52;58.96;102396.31;5093648;28;20037;-60
2022/04/27 04:41:44;;;;;;;12.52;11.23;;;;;;;7.48;58.44;102407.97;5093508;28;20169;-60
2022/04/27 04:44:09;;;;;;;13.35;11.15;;;;;;;7.41;59.16;102410.63;5094396;28;20035;-60
2022/04/27 04:46:35;;;;;;;14.05;11.48;;;;;;;7.44;58.44;102415.78;5092435;28;20027;-60
2022/04/27 04:49:00;;;;;;;12.77;11.02;;;;;;;7.46;58.63;102419.19;5093759;28;20032;-60
2022/04/27 04:51:25;;;;;;;17.05;12.02;;;;;;;7.52;59.29;102423.94;5093650;28;20036;-60
2022/04/27 04:53:50;;;;;;;14.07;11.38;;;;;;;7.52;58.77;102423.94;5091165;28;20407;-60
2022/04/27 04:56:16;;;;;;;16.73;12.88;;;;;;;7.48;58.92;102425.38;5090834;28;20028;-60
2022/04/27 04:58:42;;;;;;;14.32;11.95;;;;;;;7.44;58.91;102429.59;5092980;28;20040;-60
2022/04/27 05:01:07;;;;;;;14.70;13.05;;;;;;;7.41;59.43;102418.91;5081477;28;20032;-60
2022/04/27 05:03:36;;;;;;;17.50;13.02;;;;;;;7.45;59.42;102422.16;5093562;28;20391;-60
2022/04/27 05:06:01;;;;;;;19.77;12.98;;;;;;;7.44;59.70;102423.22;5094185;28;20053;-60
2022/04/27 05:08:27;;;;;;;17.42;12.57;;;;;;;7.44;59.52;102428.75;5091007;28;20116;-60
2022/04/27 05:10:53;;;;;;;17.98;13.27;;;;;;;7.44;60.16;102429.59;5078245;28;20103;-61
2022/04/27 05:13:18;;;;;;;15.90;12.65;;;;;;;7.42;60.10;102434.44;5085657;28;20115;-60
2022/04/27 05:15:44;;;;;;;15.57;12.65;;;;;;;7.43;60.32;102427.00;5090234;28;20509;-60
2022/04/27 05:18:09;;;;;;;13.95;12.50;;;;;;;7.48;59.89;102430.06;5088272;28;20035;-60
2022/04/27 05:20:34;;;;;;;15.77;12.68;;;;;;;7.54;59.93;102432.88;5092321;28;20040;-60
2022/04/27 05:23:00;;;;;;;15.20;12.35;;;;;;;7.56;59.89;102439.09;5091106;28;20475;-60
2022/04/27 05:25:25;;;;;;;17.17;13.18;;;;;;;7.53;60.49;102442.22;5091479;28;20123;-60
2022/04/27 05:27:50;;;;;;;14.60;12.68;;;;;;;7.56;60.23;102444.59;5092008;28;20032;-60
2022/04/27 05:33:00;;;;;;;18.85;13.43;;;;;;;7.59;60.48;102452.53;5092210;28;20169;-60
2022/04/27 05:35:25;;;;;;;15.40;13.13;;;;;;;7.57;61.44;102451.84;5091442;28;20449;-61
2022/04/27 05:37:50;;;;;;;16.40;12.90;;;;;;;7.63;61.01;102464.03;5091590;28;20024;-61
2022/04/27 05:40:16;;;;;;;15.80;13.23;;;;;;;7.62;61.87;102463.19;5084639;28;20040;-61
2022/04/27 05:42:41;;;;;;;15.27;13.68;;;;;;;7.65;61.89;102472.97;5082841;28;20038;-60
2022/04/27 05:45:10;;;;;;;20.65;13.40;;;;;;;7.68;61.90;102475.34;5084677;28;20034;-61
2022/04/27 05:47:36;;;;;;;17.63;13.50;;;;;;;7.77;61.97;102476.09;5107728;28;20024;-60
2022/04/27 05:50:04;;;;;;;21.50;13.30;;;;;;;7.86;62.09;102474.94;5090804;28;20035;-60
2022/04/27 05:52:29;;;;;;;20.25;12.52;;;;;;;7.92;62.97;102473.28;5090244;28;20107;-60
2022/04/27 05:54:55;;;;;;;17.67;12.65;;;;;;;8.02;62.72;102480.22;5081175;28;20035;-59
2022/04/27 05:57:23;;;;;;;19.55;13.30;;;;;;;8.07;62.82;102472.19;5074640;28;20066;-60
2022/04/27 05:59:48;;;;;;;17.15;12.63;;;;;;;8.14;61.85;102476.94;5090760;28;20065;-60
2022/04/27 06:02:14;;;;;;;18.75;12.77;;;;;;;8.20;62.17;102482.50;5083167;28;20097;-61
2022/04/27 06:04:40;;;;;;;15.63;12.15;;;;;;;8.28;61.96;102484.28;5087444;28;20024;-60
2022/04/27 06:07:07;;;;;;;16.63;12.77;;;;;;;8.34;62.40;102475.22;5085665;28;20484;-60
2022/04/27 06:09:33;;;;;;;18.23;12.23;;;;;;;8.42;61.80;102485.31;5086573;28;20019;-60
2022/04/27 06:11:58;;;;;;;15.52;12.13;;;;;;;8.49;61.95;102486.22;5086582;28;20024;-60
2022/04/27 06:14:25;;;;;;;15.88;12.07;;;;;;;8.64;61.78;102491.66;5088464;28;20229;-61
2022/04/27 06:16:51;;;;;;;16.08;12.23;;;;;;;8.71;61.02;102490.66;5084230;28;20032;-61
2022/04/27 06:19:19;;;;;;;18.35;11.85;;;;;;;8.87;60.55;102496.97;5079879;28;20101;-62
2022/04/27 06:21:44;;;;;;;15.82;11.93;;;;;;;8.95;61.10;102496.81;5075379;28;20424;-62
2022/04/27 06:24:10;;;;;;;15.65;10.85;;;;;;;9.09;60.06;102487.53;5095132;28;20049;-62
2022/04/27 06:26:36;;;;;;;17.63;11.48;;;;;;;9.24;60.58;102496.59;5100783;28;20563;-62
2022/04/27 06:29:02;;;;;;;9.55;5.22;;;;;;;10.23;67.51;102495.25;5090901;28;20109;-61
2022/04/27 06:31:27;;;;;;;10.70;6.32;;;;;;;11.09;64.65;102500.00;5089183;28;20143;-61
2022/04/27 06:33:53;;;;;;;10.80;7.00;;;;;;;11.74;61.76;102493.34;5105580;28;20552;-61
2022/04/27 06:36:18;;;;;;;9.90;6.90;;;;;;;12.23;59.00;102497.41;5092141;28;20113;-60
2022/04/27 06:38:43;;;;;;;14.18;9.23;;;;;;;12.45;55.93;102499.81;5086664;28;20036;-61
2022/04/27 06:41:09;;;;;;;9.48;7.88;;;;;;;12.85;54.49;102494.78;5104629;28;20489;-60
2022/04/27 06:43:34;;;;;;;8.52;7.70;;;;;;;13.17;52.89;102503.91;5096196;28;20024;-61
2022/04/27 06:46:00;;;;;;;11.25;7.97;;;;;;;13.41;52.17;102504.97;5092151;28;20039;-61
2022/04/27 06:48:26;;;;;;;14.05;8.88;;;;;;;13.17;50.33;102508.63;5096377;28;20382;-61
2022/04/27 06:50:51;;;;;;;12.95;9.98;;;;;;;12.86;50.53;102507.63;5095104;28;20024;-61
2022/04/27 06:53:17;;;;;;;14.60;9.60;;;;;;;12.49;50.59;102513.06;5107379;28;20623;-60
2022/04/27 06:55:42;;;;;;;12.30;9.90;;;;;;;12.24;51.67;102512.19;5091042;28;20046;-61
2022/04/27 06:58:10;;;;;;;17.95;10.73;;;;;;;12.02;51.95;102518.09;5084853;28;20020;-60
2022/04/27 07:00:37;;;;;;;12.73;10.40;;;;;;;11.79;52.28;102518.59;5080952;28;20420;-60
2022/04/27 07:03:05;;;;;;;13.10;10.00;;;;;;;11.71;52.97;102527.19;5093557;28;20038;-61
2022/04/27 07:05:33;;;;;;;13.38;10.10;;;;;;;11.60;53.11;102527.03;5105535;28;20417;-61
2022/04/27 07:07:58;;;;;;;14.68;10.15;;;;;;;11.60;53.14;102529.81;5095274;28;20078;-61
2022/04/27 07:10:24;;;;;;;15.30;10.15;;;;;;;11.59;52.83;102525.28;5103202;28;20482;-61
2022/04/27 07:12:50;;;;;;;13.77;10.32;;;;;;;11.52;52.91;102523.41;5096852;28;20042;-61
2022/04/27 07:15:15;;;;;;;14.52;10.05;;;;;;;11.48;53.66;102524.91;5103953;28;20043;-62
2022/04/27 07:17:41;;;;;;;14.70;10.07;;;;;;;11.52;53.40;102526.19;5091961;28;20473;-61
2022/04/27 07:20:07;;;;;;;13.15;9.73;;;;;;;11.54;53.15;102528.72;5089719;28;20023;-61
2022/04/27 07:22:33;;;;;;;13.52;9.85;;;;;;;11.61;53.29;102532.34;5083862;28;20031;-61
2022/04/27 07:24:58;;;;;;;10.25;9.18;;;;;;;11.67;52.98;102525.94;5087665;28;20094;-61
2022/04/27 07:27:27;;;;;;;14.32;9.75;;;;;;;11.70;52.74;102532.97;5080425;28;20117;-61
2022/04/27 07:29:53;;;;;;;15.70;10.02;;;;;;;11.79;52.44;102545.56;5083560;28;20024;-61
2022/04/27 07:32:18;;;;;;;10.60;8.60;;;;;;;11.84;51.55;102540.22;5089726;28;20089;-61
2022/04/27 07:34:46;;;;;;;14.75;8.98;;;;;;;11.90;51.23;102547.66;5089497;28;20501;-61
2022/04/27 07:37:12;;;;;;;14.40;8.98;;;;;;;11.96;50.83;102546.78;5089271;28;20153;-61
2022/04/27 07:39:40;;;;;;;12.65;8.68;;;;;;;12.08;50.70;102537.75;5089928;28;20038;-61
2022/04/27 07:42:06;;;;;;;10.02;8.07;;;;;;;12.15;50.02;102549.72;5089394;28;20043;-61
2022/04/27 07:44:31;;;;;;;14.77;8.25;;;;;;;12.25;49.78;102544.50;5089456;28;20482;-61
2022/04/27 07:46:56;;;;;;;11.60;7.68;;;;;;;12.29;49.07;102545.75;5089800;28;20123;-61
2022/04/27 07:49:22;;;;;;;17.73;8.27;;;;;;;12.34;48.81;102547.88;5089291;28;20024;-61
2022/04/27 07:51:51;;;;;;;9.02;6.72;;;;;;;12.40;48.55;102544.19;5088402;28;20036;-61
2022/04/27 07:54:19;;;;;;;8.70;7.00;;;;;;;12.48;47.57;102549.50;5090010;28;20119;-61
2022/04/27 07:56:44;;;;;;;9.00;7.00;;;;;;;12.53;47.63;102547.72;5089528;28;20028;-60
2022/04/27 07:59:10;;;;;;;11.38;6.78;;;;;;;12.58;46.94;102549.88;5087925;28;20483;-60
2022/04/27 08:01:35;;;;;;;9.70;6.45;;;;;;;12.70;46.38;102558.34;5090086;28;20055;-60
2022/04/27 08:04:00;;;;;;;8.30;6.00;;;;;;;12.73;46.12;102555.97;5089552;28;20028;-61
2022/04/27 08:06:25;;;;;;;9.65;6.40;;;;;;;12.83;45.38;102552.66;5089095;28;20039;-62
2022/04/27 08:08:51;;;;;;;12.15;6.18;;;;;;;12.89;45.69;102557.34;5092059;28;20118;-60
2022/04/27 08:11:19;;;;;;;11.20;5.13;;;;;;;12.93;43.86;102563.28;5092648;28;20043;-60
2022/04/27 08:13:45;;;;;;;7.35;4.18;;;;;;;12.98;43.57;102561.56;5077187;28;20020;-61
2022/04/27 08:16:11;;;;;;;8.10;5.80;;;;;;;13.06;44.32;102556.78;5076493;28;20101;-60
2022/04/27 08:18:38;;;;;;;9.98;6.43;;;;;;;13.07;44.60;102564.91;5092936;28;20119;-61
2022/04/27 08:21:15;;;;;;;9.18;5.72;;;;;;;13.16;44.23;102563.50;5093365;28;20024;-60
2022/04/27 08:23:42;;;;;;;7.95;5.18;;;;;;;13.30;44.09;102563.44;5089825;28;20027;-60
2022/04/27 08:26:08;;;;;;;8.05;6.07;;;;;;;13.35;43.12;102567.22;5111392;28;20363;-61
2022/04/27 08:28:37;;;;;;;9.15;5.85;;;;;;;13.46;43.85;102560.91;5095233;28;20062;-61
2022/04/27 08:31:02;;;;;;;14.70;5.80;;;;;;;13.54;44.17;102570.91;5106501;28;20083;-60
2022/04/27 08:33:27;;;;;;;9.18;6.20;;;;;;;13.64;43.23;102570.38;5108682;28;20031;-61
2022/04/27 08:36:11;;;;;;;10.18;6.63;;;;;;;13.58;43.08;102560.97;5106451;27;20039;-61
2022/04/27 08:38:37;;;;;;;10.20;5.90;;;;;;;13.76;43.39;102568.53;5104026;28;20035;-61
2022/04/27 08:41:03;;;;;;;8.63;5.72;;;;;;;13.82;43.48;102566.72;5101503;28;20162;-61
2022/04/27 08:43:29;;;;;;;7.97;6.25;;;;;;;13.92;43.55;102567.88;5092069;28;20028;-61
2022/04/27 08:45:55;;;;;;;8.02;5.90;;;;;;;13.94;42.83;102576.88;5093744;28;20437;-61
2022/04/27 08:48:21;;;;;;;9.35;6.25;;;;;;;13.99;42.79;102577.03;5076926;28;20027;-61
2022/04/27 08:50:48;;;;;;;9.65;5.50;;;;;;;14.10;42.28;102572.59;5072640;28;20033;-61
2022/04/27 08:53:13;;;;;;;7.70;5.45;;;;;;;14.16;41.92;102582.81;5087749;28;20020;-61
2022/04/27 08:55:40;;;;;;;6.25;4.30;;;;;;;14.47;45.18;102581.75;5093135;28;20024;-61
2022/04/27 08:58:13;;;;;;;8.48;3.60;;;;;;;14.90;46.69;102580.69;5092627;28;20064;-61
2022/04/27 09:00:39;;;;;;;9.15;5.13;;;;;;;14.85;41.28;102588.94;5088824;28;20020;-61
2022/04/27 09:03:26;;;;;;;6.65;4.40;;;;;;;15.02;42.82;102585.47;5089662;28;20126;-61
2022/04/27 09:05:54;;;;;;;9.05;4.43;;;;;;;15.21;41.29;102578.69;5082516;28;20077;-61
2022/04/27 09:08:35;;;;;;;8.10;4.57;;;;;;;15.28;40.69;102571.00;5089163;28;20020;-61
2022/04/27 09:11:17;;;;;;;6.38;4.28;;;;;;;15.41;41.39;102578.31;5086200;28;20115;-61
2022/04/27 09:13:53;;;;;;;6.87;4.40;;;;;;;15.42;39.66;102575.25;5097423;28;20046;-61
2022/04/27 09:16:21;;;;;;;6.18;3.72;;;;;;;15.54;39.80;102580.84;5100472;28;20430;-62
2022/04/27 09:22:03;;;;;;;6.00;4.07;;;;;;;15.68;40.15;102587.09;5087822;28;20108;-62
2022/04/27 09:24:45;;;;;;;7.57;4.07;;;;;;;15.80;38.49;102573.91;5099979;28;20027;-61
2022/04/27 09:27:17;;;;;;;5.43;4.30;;;;;;;15.75;38.82;102575.75;5089662;28;20067;-62
2022/04/27 09:29:43;;;;;;;6.07;4.20;;;;;;;15.67;38.62;102576.97;5095726;28;20035;-62
2022/04/27 09:32:14;;;;;;;7.30;4.25;;;;;;;15.64;38.87;102580.22;5096998;28;20122;-62
2022/04/27 09:34:48;;;;;;;7.90;3.83;;;;;;;15.80;39.21;102579.53;5089255;28;20024;-62
2022/04/27 09:37:18;;;;;;;7.40;5.00;;;;;;;15.66;37.54;102572.47;5103978;28;20550;-62
2022/04/27 09:39:48;;;;;;;9.77;4.10;;;;;;;15.91;39.49;102574.97;5097660;28;20126;-61
2022/04/27 09:42:14;;;;;;;6.13;3.78;;;;;;;16.01;38.81;102572.41;5095655;28;20498;-61
2022/04/27 09:44:40;;;;;;;6.32;4.50;;;;;;;15.91;37.84;102581.41;5086468;28;20080;-61
2022/04/27 09:47:07;;;;;;;8.02;5.10;;;;;;;15.78;38.30;102575.25;5088191;28;20040;-60
2022/04/27 09:49:37;;;;;;;4.90;4.15;;;;;;;15.84;38.68;102575.13;5088272;28;20078;-61
2022/04/27 09:52:05;;;;;;;8.85;5.43;;;;;;;15.70;37.69;102577.34;5104453;28;20015;-61
2022/04/27 09:54:40;;;;;;;10.77;6.22;;;;;;;15.52;37.55;102577.44;5098857;28;20116;-61
2022/04/27 09:57:08;;;;;;;8.82;6.13;;;;;;;15.43;37.87;102574.16;5098347;28;20032;-61
2022/04/27 09:59:35;;;;;;;9.85;6.22;;;;;;;15.38;38.12;102573.19;5106735;28;20039;-61
2022/04/27 10:02:09;;;;;;;9.88;6.20;;;;;;;15.36;38.55;102584.63;5095644;28;20134;-61
2022/04/27 10:04:38;;;;;;;7.78;5.78;;;;;;;15.40;38.62;102584.97;5087297;28;20064;-61
2022/04/27 10:07:05;;;;;;;13.80;6.60;;;;;;;15.39;38.21;102584.13;5098396;28;20524;-61
2022/04/27 10:09:32;;;;;;;8.50;6.38;;;;;;;15.32;38.36;102577.81;5090533;28;20032;-61
2022/04/27 10:12:07;;;;;;;9.13;7.75;;;;;;;15.09;38.20;102580.59;5089472;28;20673;-61
2022/04/27 10:14:33;;;;;;;10.50;7.05;;;;;;;15.06;38.22;102581.94;5096115;28;20688;-61
2022/04/27 10:16:59;;;;;;;10.85;7.55;;;;;;;15.06;38.59;102579.13;5103227;28;20031;-62
2022/04/27 10:19:24;;;;;;;9.90;7.53;;;;;;;15.07;38.14;102574.41;5097081;28;20070;-61
2022/04/27 10:22:00;;;;;;;12.45;7.35;;;;;;;15.14;38.01;102580.72;5101543;28;20062;-62
2022/04/27 10:24:46;;;;;;;11.05;7.57;;;;;;;15.18;39.41;102567.97;5103211;28;20035;-61
2022/04/27 10:27:21;;;;;;;10.07;7.18;;;;;;;15.30;38.65;102568.81;5095085;27;20114;-61
2022/04/27 10:29:50;;;;;;;10.48;7.15;;;;;;;15.30;38.43;102563.22;5091418;28;20436;-62
2022/04/27 10:32:39;;;;;;;11.60;7.10;;;;;;;15.44;39.43;102564.69;5085475;28;20517;-62
2022/04/27 10:35:14;;;;;;;9.65;7.60;;;;;;;15.50;38.94;102564.81;5100075;28;20031;-62
2022/04/27 10:37:52;;;;;;;8.68;7.30;;;;;;;15.59;38.55;102560.53;5096243;28;20036;-61
2022/04/27 10:40:25;;;;;;;8.05;7.05;;;;;;;15.62;39.02;102565.63;5086105;28;20082;-61
2022/04/27 10:42:51;;;;;;;9.70;7.60;;;;;;;15.55;37.89;102556.50;5082818;28;20024;-62
2022/04/27 10:45:24;;;;;;;10.75;8.18;;;;;;;15.45;38.36;102565.53;5077958;28;20552;-61
2022/04/27 10:47:50;;;;;;;9.25;7.30;;;;;;;15.31;38.07;102559.31;5087359;28;20059;-61
2022/04/27 10:50:17;;;;;;;11.57;7.95;;;;;;;15.17;38.12;102564.31;5086690;28;20793;-61
2022/04/27 10:52:51;;;;;;;9.45;7.75;;;;;;;15.16;38.63;102558.94;5085008;28;20058;-61
2022/04/27 10:55:34;;;;;;;10.05;7.95;;;;;;;15.25;39.27;102567.81;5084259;28;20035;-61
2022/04/27 10:58:12;;;;;;;9.23;8.23;;;;;;;15.29;38.78;102561.53;5074823;28;20086;-61
2022/04/27 11:01:04;;;;;;;12.20;7.88;;;;;;;15.32;38.95;102566.59;5086488;28;20067;-61
2022/04/27 11:03:31;;;;;;;8.95;7.10;;;;;;;15.20;38.07;102562.97;5088234;28;20662;-61
2022/04/27 11:06:02;;;;;;;12.13;7.97;;;;;;;15.14;38.36;102558.34;5087505;28;20174;-61
2022/04/27 11:08:47;;;;;;;12.20;8.18;;;;;;;15.29;38.93;102555.94;5087724;28;20024;-61
2022/04/27 11:11:17;;;;;;;11.82;8.13;;;;;;;15.40;39.28;102560.66;5087542;28;20681;-62
2022/04/27 11:13:43;;;;;;;8.45;7.47;;;;;;;15.50;38.47;102557.25;5087634;28;20384;-61
2022/04/27 11:16:13;;;;;;;10.13;7.50;;;;;;;15.62;38.32;102560.88;5086557;28;20024;-63
2022/04/27 11:18:51;;;;;;;10.82;7.00;;;;;;;15.68;38.35;102547.91;5086489;28;20066;-64
2022/04/27 11:21:20;;;;;;;9.85;7.18;;;;;;;15.77;38.32;102548.38;5086124;28;20085;-61
2022/04/27 11:23:47;;;;;;;8.65;6.85;;;;;;;15.74;37.82;102552.50;5080891;28;20031;-61
2022/04/27 11:26:15;;;;;;;8.27;6.80;;;;;;;15.76;37.71;102553.13;5082155;28;20028;-60
2022/04/27 11:28:44;;;;;;;7.90;6.68;;;;;;;15.89;37.97;102555.63;5080138;28;20059;-60
2022/04/27 11:31:11;;;;;;;9.95;8.15;;;;;;;15.86;36.73;102553.31;5074933;28;20051;-61
2022/04/27 11:33:40;;;;;;;9.75;7.95;;;;;;;15.90;37.08;102551.72;5082449;28;20028;-61
2022/04/27 11:36:28;;;;;;;8.98;7.28;;;;;;;15.94;38.07;102554.88;5081731;28;20484;-60